sensor_id;sensor_type;location;lat;lon;timestamp;temperature;humidity
8459;DHT22;4266;48.816;9.154;2023-07-13T00:01:34;19.00;70.20
8459;DHT22;4266;48.816;9.154;2023-07-13T00:03:59;19.00;70.00
8459;DHT22;4266;48.816;9.154;2023-07-13T00:06:26;18.90;69.80
8459;DHT22;4266;48.816;9.154;2023-07-13T00:08:52;18.80;69.60
8459;DHT22;4266;48.816;9.154;2023-07-13T00:11:17;18.80;69.60
8459;DHT22;4266;48.816;9.154;2023-07-13T00:13:43;18.80;69.90
8459;DHT22;4266;48.816;9.154;2023-07-13T00:16:09;18.70;69.50
8459;DHT22;4266;48.816;9.154;2023-07-13T00:18:34;18.70;68.70
8459;DHT22;4266;48.816;9.154;2023-07-13T00:21:00;18.70;69.00
8459;DHT22;4266;48.816;9.154;2023-07-13T00:23:26;18.60;69.10
8459;DHT22;4266;48.816;9.154;2023-07-13T00:25:52;18.60;68.60
8459;DHT22;4266;48.816;9.154;2023-07-13T00:28:18;18.60;68.50
8459;DHT22;4266;48.816;9.154;2023-07-13T00:30:44;18.60;68.00
8459;DHT22;4266;48.816;9.154;2023-07-13T00:33:11;18.60;68.30
8459;DHT22;4266;48.816;9.154;2023-07-13T00:35:37;18.60;68.30
8459;DHT22;4266;48.816;9.154;2023-07-13T00:38:03;18.50;67.80
8459;DHT22;4266;48.816;9.154;2023-07-13T00:40:29;18.40;67.70
8459;DHT22;4266;48.816;9.154;2023-07-13T00:42:56;18.40;67.80
8459;DHT22;4266;48.816;9.154;2023-07-13T00:48:19;18.20;68.40
8459;DHT22;4266;48.816;9.154;2023-07-13T00:50:43;18.20;68.30
8459;DHT22;4266;48.816;9.154;2023-07-13T00:53:09;18.20;68.10
8459;DHT22;4266;48.816;9.154;2023-07-13T00:55:35;18.10;68.50
8459;DHT22;4266;48.816;9.154;2023-07-13T00:58:00;18.00;68.70
8459;DHT22;4266;48.816;9.154;2023-07-13T01:00:27;18.00;68.70
8459;DHT22;4266;48.816;9.154;2023-07-13T01:02:53;18.00;68.80
8459;DHT22;4266;48.816;9.154;2023-07-13T01:05:20;18.00;68.80
8459;DHT22;4266;48.816;9.154;2023-07-13T01:07:45;18.00;68.30
8459;DHT22;4266;48.816;9.154;2023-07-13T01:10:12;17.90;68.10
8459;DHT22;4266;48.816;9.154;2023-07-13T01:12:37;18.00;67.50
8459;DHT22;4266;48.816;9.154;2023-07-13T01:15:03;18.00;68.10
8459;DHT22;4266;48.816;9.154;2023-07-13T01:17:29;18.00;67.70
8459;DHT22;4266;48.816;9.154;2023-07-13T01:19:55;18.00;67.60
8459;DHT22;4266;48.816;9.154;2023-07-13T01:22:21;18.00;67.60
8459;DHT22;4266;48.816;9.154;2023-07-13T01:24:47;18.00;67.20
8459;DHT22;4266;48.816;9.154;2023-07-13T01:27:13;17.90;68.00
8459;DHT22;4266;48.816;9.154;2023-07-13T01:29:38;17.90;67.80
8459;DHT22;4266;48.816;9.154;2023-07-13T01:32:06;17.90;67.60
8459;DHT22;4266;48.816;9.154;2023-07-13T01:34:33;17.80;67.00
8459;DHT22;4266;48.816;9.154;2023-07-13T01:36:59;17.70;68.10
8459;DHT22;4266;48.816;9.154;2023-07-13T01:39:25;17.60;67.90
8459;DHT22;4266;48.816;9.154;2023-07-13T01:41:50;17.70;68.00
8459;DHT22;4266;48.816;9.154;2023-07-13T01:44:16;17.50;68.30
8459;DHT22;4266;48.816;9.154;2023-07-13T01:46:42;17.50;68.10
8459;DHT22;4266;48.816;9.154;2023-07-13T01:49:07;17.50;67.80
8459;DHT22;4266;48.816;9.154;2023-07-13T01:51:33;17.60;66.40
8459;DHT22;4266;48.816;9.154;2023-07-13T01:53:59;17.60;65.70
8459;DHT22;4266;48.816;9.154;2023-07-13T01:56:24;17.70;65.90
8459;DHT22;4266;48.816;9.154;2023-07-13T01:58:50;17.60;65.20
8459;DHT22;4266;48.816;9.154;2023-07-13T02:01:16;17.70;65.00
8459;DHT22;4266;48.816;9.154;2023-07-13T02:03:42;17.60;65.30
8459;DHT22;4266;48.816;9.154;2023-07-13T02:06:08;17.60;65.30
8459;DHT22;4266;48.816;9.154;2023-07-13T02:08:34;17.60;65.00
8459;DHT22;4266;48.816;9.154;2023-07-13T02:11:02;17.50;65.30
8459;DHT22;4266;48.816;9.154;2023-07-13T02:13:27;17.40;65.60
8459;DHT22;4266;48.816;9.154;2023-07-13T02:21:40;17.50;66.20
8459;DHT22;4266;48.816;9.154;2023-07-13T02:24:06;17.50;66.20
8459;DHT22;4266;48.816;9.154;2023-07-13T02:26:32;17.50;65.50
8459;DHT22;4266;48.816;9.154;2023-07-13T02:28:58;17.60;65.70
8459;DHT22;4266;48.816;9.154;2023-07-13T02:31:23;17.50;66.00
8459;DHT22;4266;48.816;9.154;2023-07-13T02:33:49;17.50;66.40
8459;DHT22;4266;48.816;9.154;2023-07-13T02:36:15;17.40;66.70
8459;DHT22;4266;48.816;9.154;2023-07-13T02:38:41;17.30;66.80
8459;DHT22;4266;48.816;9.154;2023-07-13T02:41:07;17.20;66.80
8459;DHT22;4266;48.816;9.154;2023-07-13T02:43:32;17.10;67.40
8459;DHT22;4266;48.816;9.154;2023-07-13T02:45:59;17.10;67.40
8459;DHT22;4266;48.816;9.154;2023-07-13T02:48:24;17.10;67.40
8459;DHT22;4266;48.816;9.154;2023-07-13T02:50:50;17.00;68.00
8459;DHT22;4266;48.816;9.154;2023-07-13T02:53:15;17.00;68.10
8459;DHT22;4266;48.816;9.154;2023-07-13T02:55:41;17.00;68.60
8459;DHT22;4266;48.816;9.154;2023-07-13T02:58:07;16.90;69.10
8459;DHT22;4266;48.816;9.154;2023-07-13T03:00:32;16.80;69.30
8459;DHT22;4266;48.816;9.154;2023-07-13T03:02:58;16.70;69.90
8459;DHT22;4266;48.816;9.154;2023-07-13T03:05:25;16.70;70.80
8459;DHT22;4266;48.816;9.154;2023-07-13T03:07:50;16.60;70.60
8459;DHT22;4266;48.816;9.154;2023-07-13T03:10:16;16.60;71.10
8459;DHT22;4266;48.816;9.154;2023-07-13T03:12:42;16.50;71.60
8459;DHT22;4266;48.816;9.154;2023-07-13T03:15:08;16.60;72.00
8459;DHT22;4266;48.816;9.154;2023-07-13T03:20:27;16.60;72.30
8459;DHT22;4266;48.816;9.154;2023-07-13T03:22:52;16.70;73.00
8459;DHT22;4266;48.816;9.154;2023-07-13T03:25:18;16.70;73.40
8459;DHT22;4266;48.816;9.154;2023-07-13T03:27:44;16.80;74.10
8459;DHT22;4266;48.816;9.154;2023-07-13T03:30:10;16.80;74.00
8459;DHT22;4266;48.816;9.154;2023-07-13T03:32:36;16.80;74.60
8459;DHT22;4266;48.816;9.154;2023-07-13T03:35:02;16.70;75.20
8459;DHT22;4266;48.816;9.154;2023-07-13T03:37:27;16.90;75.60
8459;DHT22;4266;48.816;9.154;2023-07-13T03:39:53;16.90;75.20
8459;DHT22;4266;48.816;9.154;2023-07-13T03:42:19;17.00;75.10
8459;DHT22;4266;48.816;9.154;2023-07-13T03:44:45;17.00;75.40
8459;DHT22;4266;48.816;9.154;2023-07-13T03:47:10;17.10;75.90
8459;DHT22;4266;48.816;9.154;2023-07-13T03:49:36;17.10;76.00
8459;DHT22;4266;48.816;9.154;2023-07-13T03:52:02;17.10;75.60
8459;DHT22;4266;48.816;9.154;2023-07-13T03:54:28;17.20;75.60
8459;DHT22;4266;48.816;9.154;2023-07-13T03:56:54;17.20;76.20
8459;DHT22;4266;48.816;9.154;2023-07-13T03:59:20;17.20;75.50
8459;DHT22;4266;48.816;9.154;2023-07-13T04:01:46;17.10;75.40
8459;DHT22;4266;48.816;9.154;2023-07-13T04:04:12;17.10;75.30
8459;DHT22;4266;48.816;9.154;2023-07-13T04:06:38;17.20;75.90
8459;DHT22;4266;48.816;9.154;2023-07-13T04:09:04;17.20;75.40
8459;DHT22;4266;48.816;9.154;2023-07-13T04:11:31;17.30;76.50
8459;DHT22;4266;48.816;9.154;2023-07-13T04:13:57;17.20;76.70
8459;DHT22;4266;48.816;9.154;2023-07-13T04:16:24;17.20;77.00
8459;DHT22;4266;48.816;9.154;2023-07-13T04:18:49;17.20;76.90
8459;DHT22;4266;48.816;9.154;2023-07-13T04:21:15;17.20;77.30
8459;DHT22;4266;48.816;9.154;2023-07-13T04:23:40;17.20;77.50
8459;DHT22;4266;48.816;9.154;2023-07-13T04:26:06;17.30;77.90
8459;DHT22;4266;48.816;9.154;2023-07-13T04:28:32;17.30;78.00
8459;DHT22;4266;48.816;9.154;2023-07-13T04:30:58;17.20;78.10
8459;DHT22;4266;48.816;9.154;2023-07-13T04:33:24;17.20;78.00
8459;DHT22;4266;48.816;9.154;2023-07-13T04:35:50;17.20;77.40
8459;DHT22;4266;48.816;9.154;2023-07-13T04:38:15;17.30;78.50
8459;DHT22;4266;48.816;9.154;2023-07-13T04:40:44;17.30;77.90
8459;DHT22;4266;48.816;9.154;2023-07-13T04:43:08;17.20;78.60
8459;DHT22;4266;48.816;9.154;2023-07-13T04:45:34;17.20;78.60
8459;DHT22;4266;48.816;9.154;2023-07-13T04:48:01;17.10;79.30
8459;DHT22;4266;48.816;9.154;2023-07-13T04:50:28;17.10;79.80
8459;DHT22;4266;48.816;9.154;2023-07-13T04:52:54;17.10;79.80
8459;DHT22;4266;48.816;9.154;2023-07-13T04:55:20;17.10;79.80
8459;DHT22;4266;48.816;9.154;2023-07-13T04:57:46;17.10;80.50
8459;DHT22;4266;48.816;9.154;2023-07-13T05:00:13;17.10;79.90
8459;DHT22;4266;48.816;9.154;2023-07-13T05:02:39;17.10;80.50
8459;DHT22;4266;48.816;9.154;2023-07-13T05:05:05;17.10;81.30
8459;DHT22;4266;48.816;9.154;2023-07-13T05:07:31;17.00;81.20
8459;DHT22;4266;48.816;9.154;2023-07-13T05:09:57;17.20;80.50
8459;DHT22;4266;48.816;9.154;2023-07-13T05:12:23;17.60;79.70
8459;DHT22;4266;48.816;9.154;2023-07-13T05:14:49;17.60;79.70
8459;DHT22;4266;48.816;9.154;2023-07-13T05:17:15;17.90;78.50
8459;DHT22;4266;48.816;9.154;2023-07-13T05:19:41;18.20;76.30
8459;DHT22;4266;48.816;9.154;2023-07-13T05:22:07;18.30;75.40
8459;DHT22;4266;48.816;9.154;2023-07-13T05:24:33;18.30;75.40
8459;DHT22;4266;48.816;9.154;2023-07-13T05:26:59;18.50;75.80
8459;DHT22;4266;48.816;9.154;2023-07-13T05:29:25;18.50;75.70
8459;DHT22;4266;48.816;9.154;2023-07-13T05:31:51;18.60;74.70
8459;DHT22;4266;48.816;9.154;2023-07-13T05:34:17;18.70;74.90
8459;DHT22;4266;48.816;9.154;2023-07-13T05:36:42;18.80;75.50
8459;DHT22;4266;48.816;9.154;2023-07-13T05:39:08;19.10;75.30
8459;DHT22;4266;48.816;9.154;2023-07-13T05:41:35;19.90;73.00
8459;DHT22;4266;48.816;9.154;2023-07-13T05:44:00;19.90;73.10
8459;DHT22;4266;48.816;9.154;2023-07-13T05:46:26;20.20;73.10
8459;DHT22;4266;48.816;9.154;2023-07-13T05:48:52;20.40;71.60
8459;DHT22;4266;48.816;9.154;2023-07-13T05:51:17;20.30;71.90
8459;DHT22;4266;48.816;9.154;2023-07-13T05:53:43;20.20;70.10
8459;DHT22;4266;48.816;9.154;2023-07-13T05:56:22;20.00;70.60
8459;DHT22;4266;48.816;9.154;2023-07-13T05:58:58;19.80;70.90
8459;DHT22;4266;48.816;9.154;2023-07-13T06:01:24;19.90;71.10
8459;DHT22;4266;48.816;9.154;2023-07-13T06:03:50;21.00;70.90
8459;DHT22;4266;48.816;9.154;2023-07-13T06:06:16;21.10;71.00
8459;DHT22;4266;48.816;9.154;2023-07-13T06:08:41;21.20;68.10
8459;DHT22;4266;48.816;9.154;2023-07-13T06:14:10;21.90;65.90
8459;DHT22;4266;48.816;9.154;2023-07-13T06:16:36;21.90;65.70
8459;DHT22;4266;48.816;9.154;2023-07-13T06:19:02;22.10;65.30
8459;DHT22;4266;48.816;9.154;2023-07-13T06:21:27;22.20;63.60
8459;DHT22;4266;48.816;9.154;2023-07-13T06:23:53;22.20;63.10
8459;DHT22;4266;48.816;9.154;2023-07-13T06:26:20;22.70;62.00
8459;DHT22;4266;48.816;9.154;2023-07-13T06:28:45;22.60;61.90
8459;DHT22;4266;48.816;9.154;2023-07-13T06:31:12;22.80;61.60
8459;DHT22;4266;48.816;9.154;2023-07-13T06:33:37;22.70;61.60
8459;DHT22;4266;48.816;9.154;2023-07-13T06:36:03;22.20;59.90
8459;DHT22;4266;48.816;9.154;2023-07-13T06:38:28;22.90;60.70
8459;DHT22;4266;48.816;9.154;2023-07-13T06:40:54;23.10;59.80
8459;DHT22;4266;48.816;9.154;2023-07-13T06:43:23;24.20;59.80
8459;DHT22;4266;48.816;9.154;2023-07-13T06:45:50;25.00;59.50
8459;DHT22;4266;48.816;9.154;2023-07-13T06:48:15;25.20;56.90
8459;DHT22;4266;48.816;9.154;2023-07-13T06:50:41;25.10;57.40
8459;DHT22;4266;48.816;9.154;2023-07-13T06:53:07;24.90;57.00
8459;DHT22;4266;48.816;9.154;2023-07-13T06:55:32;24.10;53.90
8459;DHT22;4266;48.816;9.154;2023-07-13T06:57:59;25.00;55.60
8459;DHT22;4266;48.816;9.154;2023-07-13T07:00:24;25.40;54.80
8459;DHT22;4266;48.816;9.154;2023-07-13T07:02:51;25.70;54.90
8459;DHT22;4266;48.816;9.154;2023-07-13T07:05:17;25.60;54.80
8459;DHT22;4266;48.816;9.154;2023-07-13T07:07:42;25.90;55.10
8459;DHT22;4266;48.816;9.154;2023-07-13T07:10:08;26.50;55.60
8459;DHT22;4266;48.816;9.154;2023-07-13T07:12:34;26.50;52.90
8459;DHT22;4266;48.816;9.154;2023-07-13T07:14:59;26.80;53.80
8459;DHT22;4266;48.816;9.154;2023-07-13T07:17:25;26.40;53.00
8459;DHT22;4266;48.816;9.154;2023-07-13T07:19:51;26.50;52.80
8459;DHT22;4266;48.816;9.154;2023-07-13T07:22:17;26.60;54.20
8459;DHT22;4266;48.816;9.154;2023-07-13T07:24:43;27.30;52.50
8459;DHT22;4266;48.816;9.154;2023-07-13T07:27:09;27.30;52.80
8459;DHT22;4266;48.816;9.154;2023-07-13T07:29:34;27.30;51.00
8459;DHT22;4266;48.816;9.154;2023-07-13T07:32:07;26.60;51.40
8459;DHT22;4266;48.816;9.154;2023-07-13T07:34:33;26.50;51.50
8459;DHT22;4266;48.816;9.154;2023-07-13T07:36:59;26.70;52.10
8459;DHT22;4266;48.816;9.154;2023-07-13T07:39:25;27.70;51.90
8459;DHT22;4266;48.816;9.154;2023-07-13T07:41:51;27.70;51.80
8459;DHT22;4266;48.816;9.154;2023-07-13T07:44:17;27.80;52.50
8459;DHT22;4266;48.816;9.154;2023-07-13T07:46:43;27.90;51.20
8459;DHT22;4266;48.816;9.154;2023-07-13T07:49:09;28.20;50.20
8459;DHT22;4266;48.816;9.154;2023-07-13T07:51:35;28.10;50.10
8459;DHT22;4266;48.816;9.154;2023-07-13T07:54:01;28.40;50.30
8459;DHT22;4266;48.816;9.154;2023-07-13T07:56:27;28.30;50.50
8459;DHT22;4266;48.816;9.154;2023-07-13T07:58:52;27.60;48.60
8459;DHT22;4266;48.816;9.154;2023-07-13T08:01:18;27.40;48.80
8459;DHT22;4266;48.816;9.154;2023-07-13T08:03:44;27.20;48.90
8459;DHT22;4266;48.816;9.154;2023-07-13T08:06:09;27.10;48.40
8459;DHT22;4266;48.816;9.154;2023-07-13T08:08:35;27.70;49.80
8459;DHT22;4266;48.816;9.154;2023-07-13T08:11:03;28.20;50.00
8459;DHT22;4266;48.816;9.154;2023-07-13T08:13:28;28.20;49.20
8459;DHT22;4266;48.816;9.154;2023-07-13T08:15:54;28.30;50.30
8459;DHT22;4266;48.816;9.154;2023-07-13T08:18:20;27.60;48.90
8459;DHT22;4266;48.816;9.154;2023-07-13T08:20:46;28.10;49.00
8459;DHT22;4266;48.816;9.154;2023-07-13T08:23:12;28.10;48.70
8459;DHT22;4266;48.816;9.154;2023-07-13T08:25:38;28.20;49.70
8459;DHT22;4266;48.816;9.154;2023-07-13T08:28:05;28.40;49.90
8459;DHT22;4266;48.816;9.154;2023-07-13T08:30:31;28.20;48.80
8459;DHT22;4266;48.816;9.154;2023-07-13T08:32:56;27.40;48.90
8459;DHT22;4266;48.816;9.154;2023-07-13T08:35:22;27.40;49.30
8459;DHT22;4266;48.816;9.154;2023-07-13T08:37:48;28.00;49.90
8459;DHT22;4266;48.816;9.154;2023-07-13T08:40:14;27.80;50.20
8459;DHT22;4266;48.816;9.154;2023-07-13T08:42:44;27.80;50.20
8459;DHT22;4266;48.816;9.154;2023-07-13T08:45:17;28.40;49.30
8459;DHT22;4266;48.816;9.154;2023-07-13T08:47:44;28.30;48.70
8459;DHT22;4266;48.816;9.154;2023-07-13T08:50:10;28.30;48.70
8459;DHT22;4266;48.816;9.154;2023-07-13T08:52:35;27.90;47.90
8459;DHT22;4266;48.816;9.154;2023-07-13T08:55:02;27.90;47.90
8459;DHT22;4266;48.816;9.154;2023-07-13T08:57:31;28.10;48.60
8459;DHT22;4266;48.816;9.154;2023-07-13T08:59:51;27.40;48.10
8459;DHT22;4266;48.816;9.154;2023-07-13T09:02:35;27.90;49.20
8459;DHT22;4266;48.816;9.154;2023-07-13T09:05:03;28.50;49.20
8459;DHT22;4266;48.816;9.154;2023-07-13T09:07:55;28.30;47.90
8459;DHT22;4266;48.816;9.154;2023-07-13T09:10:32;28.40;48.80
8459;DHT22;4266;48.816;9.154;2023-07-13T09:13:07;28.00;46.80
8459;DHT22;4266;48.816;9.154;2023-07-13T09:15:31;28.00;46.80
8459;DHT22;4266;48.816;9.154;2023-07-13T09:17:55;28.30;48.20
8459;DHT22;4266;48.816;9.154;2023-07-13T09:20:27;29.10;48.40
8459;DHT22;4266;48.816;9.154;2023-07-13T09:22:51;29.30;48.60
8459;DHT22;4266;48.816;9.154;2023-07-13T09:25:30;29.20;47.70
8459;DHT22;4266;48.816;9.154;2023-07-13T09:27:58;29.20;47.70
8459;DHT22;4266;48.816;9.154;2023-07-13T09:30:30;28.70;47.70
8459;DHT22;4266;48.816;9.154;2023-07-13T09:32:50;29.30;48.40
8459;DHT22;4266;48.816;9.154;2023-07-13T09:35:16;28.90;45.60
8459;DHT22;4266;48.816;9.154;2023-07-13T09:37:40;28.50;47.80
8459;DHT22;4266;48.816;9.154;2023-07-13T09:40:10;28.80;47.80
8459;DHT22;4266;48.816;9.154;2023-07-13T09:42:34;28.50;46.00
8459;DHT22;4266;48.816;9.154;2023-07-13T09:45:00;27.80;46.20
8459;DHT22;4266;48.816;9.154;2023-07-13T09:47:27;28.70;47.20
8459;DHT22;4266;48.816;9.154;2023-07-13T09:49:55;29.10;48.10
8459;DHT22;4266;48.816;9.154;2023-07-13T09:52:19;28.50;46.60
8459;DHT22;4266;48.816;9.154;2023-07-13T09:54:47;28.30;46.90
8459;DHT22;4266;48.816;9.154;2023-07-13T09:57:13;28.20;48.60
8459;DHT22;4266;48.816;9.154;2023-07-13T09:59:40;29.00;48.40
8459;DHT22;4266;48.816;9.154;2023-07-13T10:02:22;29.00;48.50
8459;DHT22;4266;48.816;9.154;2023-07-13T10:04:37;28.50;46.20
8459;DHT22;4266;48.816;9.154;2023-07-13T10:07:06;28.50;46.10
8459;DHT22;4266;48.816;9.154;2023-07-13T10:09:31;29.20;46.90
8459;DHT22;4266;48.816;9.154;2023-07-13T10:11:57;29.20;47.80
8459;DHT22;4266;48.816;9.154;2023-07-13T10:14:23;29.20;47.80
8459;DHT22;4266;48.816;9.154;2023-07-13T10:16:49;29.20;47.60
8459;DHT22;4266;48.816;9.154;2023-07-13T10:19:19;29.30;47.60
8459;DHT22;4266;48.816;9.154;2023-07-13T10:21:56;29.40;47.90
8459;DHT22;4266;48.816;9.154;2023-07-13T10:24:22;29.40;47.90
8459;DHT22;4266;48.816;9.154;2023-07-13T10:26:56;29.20;47.00
8459;DHT22;4266;48.816;9.154;2023-07-13T10:29:23;29.00;47.30
8459;DHT22;4266;48.816;9.154;2023-07-13T10:31:48;29.20;47.90
8459;DHT22;4266;48.816;9.154;2023-07-13T10:34:14;29.20;47.80
8459;DHT22;4266;48.816;9.154;2023-07-13T10:36:44;28.30;47.40
8459;DHT22;4266;48.816;9.154;2023-07-13T10:39:10;28.30;47.20
8459;DHT22;4266;48.816;9.154;2023-07-13T10:41:36;28.50;47.90
8459;DHT22;4266;48.816;9.154;2023-07-13T10:44:00;28.30;48.00
8459;DHT22;4266;48.816;9.154;2023-07-13T10:46:26;28.20;47.80
8459;DHT22;4266;48.816;9.154;2023-07-13T10:48:55;28.30;47.70
8459;DHT22;4266;48.816;9.154;2023-07-13T10:51:20;28.20;47.40
8459;DHT22;4266;48.816;9.154;2023-07-13T10:53:47;27.80;47.70
8459;DHT22;4266;48.816;9.154;2023-07-13T10:56:32;28.30;47.60
8459;DHT22;4266;48.816;9.154;2023-07-13T10:59:09;28.40;47.70
8459;DHT22;4266;48.816;9.154;2023-07-13T11:01:38;28.60;48.50
8459;DHT22;4266;48.816;9.154;2023-07-13T11:03:55;28.70;47.70
8459;DHT22;4266;48.816;9.154;2023-07-13T11:06:37;28.40;47.00
8459;DHT22;4266;48.816;9.154;2023-07-13T11:09:36;27.90;46.30
8459;DHT22;4266;48.816;9.154;2023-07-13T11:11:45;27.50;47.80
8459;DHT22;4266;48.816;9.154;2023-07-13T11:16:49;27.70;46.60
8459;DHT22;4266;48.816;9.154;2023-07-13T11:19:37;28.30;48.20
8459;DHT22;4266;48.816;9.154;2023-07-13T11:22:12;28.70;46.90
8459;DHT22;4266;48.816;9.154;2023-07-13T11:24:59;28.70;46.80
8459;DHT22;4266;48.816;9.154;2023-07-13T11:27:33;28.30;47.30
8459;DHT22;4266;48.816;9.154;2023-07-13T11:32:30;28.00;48.00
8459;DHT22;4266;48.816;9.154;2023-07-13T11:34:55;27.60;46.20
8459;DHT22;4266;48.816;9.154;2023-07-13T11:37:21;27.40;47.50
8459;DHT22;4266;48.816;9.154;2023-07-13T11:39:47;27.20;47.10
8459;DHT22;4266;48.816;9.154;2023-07-13T11:42:13;26.90;46.50
8459;DHT22;4266;48.816;9.154;2023-07-13T11:44:45;27.30;47.70
8459;DHT22;4266;48.816;9.154;2023-07-13T11:47:09;27.70;46.90
8459;DHT22;4266;48.816;9.154;2023-07-13T11:49:40;28.20;47.50
8459;DHT22;4266;48.816;9.154;2023-07-13T11:51:59;28.40;47.00
8459;DHT22;4266;48.816;9.154;2023-07-13T11:54:31;28.20;46.40
8459;DHT22;4266;48.816;9.154;2023-07-13T11:56:57;28.20;46.40
8459;DHT22;4266;48.816;9.154;2023-07-13T11:59:21;28.60;47.00
8459;DHT22;4266;48.816;9.154;2023-07-13T12:01:51;29.00;46.80
8459;DHT22;4266;48.816;9.154;2023-07-13T12:04:19;29.00;46.70
8459;DHT22;4266;48.816;9.154;2023-07-13T12:06:40;28.50;45.40
8459;DHT22;4266;48.816;9.154;2023-07-13T12:09:10;29.40;46.60
8459;DHT22;4266;48.816;9.154;2023-07-13T12:11:35;29.40;46.70
8459;DHT22;4266;48.816;9.154;2023-07-13T12:14:02;30.00;45.70
8459;DHT22;4266;48.816;9.154;2023-07-13T12:16:29;29.90;45.60
8459;DHT22;4266;48.816;9.154;2023-07-13T12:18:55;28.40;46.20
8459;DHT22;4266;48.816;9.154;2023-07-13T12:21:22;28.40;46.20
8459;DHT22;4266;48.816;9.154;2023-07-13T12:23:48;28.40;45.10
8459;DHT22;4266;48.816;9.154;2023-07-13T12:26:13;28.40;45.10
8459;DHT22;4266;48.816;9.154;2023-07-13T12:28:43;28.20;44.80
8459;DHT22;4266;48.816;9.154;2023-07-13T12:31:06;27.80;45.20
8459;DHT22;4266;48.816;9.154;2023-07-13T12:33:30;27.70;45.10
8459;DHT22;4266;48.816;9.154;2023-07-13T12:35:56;28.10;45.00
8459;DHT22;4266;48.816;9.154;2023-07-13T12:38:24;28.10;45.00
8459;DHT22;4266;48.816;9.154;2023-07-13T12:40:49;28.40;44.70
8459;DHT22;4266;48.816;9.154;2023-07-13T12:43:15;27.70;44.80
8459;DHT22;4266;48.816;9.154;2023-07-13T12:48:19;27.70;45.40
8459;DHT22;4266;48.816;9.154;2023-07-13T12:50:47;28.00;45.80
8459;DHT22;4266;48.816;9.154;2023-07-13T12:53:14;27.80;44.60
8459;DHT22;4266;48.816;9.154;2023-07-13T12:55:42;27.80;44.70
8459;DHT22;4266;48.816;9.154;2023-07-13T12:58:09;28.10;46.50
8459;DHT22;4266;48.816;9.154;2023-07-13T13:00:35;28.20;45.40
8459;DHT22;4266;48.816;9.154;2023-07-13T13:03:05;28.40;45.30
8459;DHT22;4266;48.816;9.154;2023-07-13T13:05:30;28.40;44.10
8459;DHT22;4266;48.816;9.154;2023-07-13T13:07:55;28.40;44.10
8459;DHT22;4266;48.816;9.154;2023-07-13T13:10:21;28.30;45.00
8459;DHT22;4266;48.816;9.154;2023-07-13T13:12:47;28.00;44.10
8459;DHT22;4266;48.816;9.154;2023-07-13T13:15:13;28.10;44.90
8459;DHT22;4266;48.816;9.154;2023-07-13T13:17:40;27.70;44.20
8459;DHT22;4266;48.816;9.154;2023-07-13T13:20:14;27.30;44.40
8459;DHT22;4266;48.816;9.154;2023-07-13T13:22:39;27.30;44.30
8459;DHT22;4266;48.816;9.154;2023-07-13T13:25:09;27.50;44.30
8459;DHT22;4266;48.816;9.154;2023-07-13T13:27:33;27.50;44.30
8459;DHT22;4266;48.816;9.154;2023-07-13T13:29:59;27.50;44.20
8459;DHT22;4266;48.816;9.154;2023-07-13T13:32:25;27.50;44.60
8459;DHT22;4266;48.816;9.154;2023-07-13T13:34:51;27.50;44.60
8459;DHT22;4266;48.816;9.154;2023-07-13T13:37:21;27.30;44.60
8459;DHT22;4266;48.816;9.154;2023-07-13T13:39:46;26.70;45.00
8459;DHT22;4266;48.816;9.154;2023-07-13T13:42:11;26.70;46.00
8459;DHT22;4266;48.816;9.154;2023-07-13T13:44:37;26.90;46.20
8459;DHT22;4266;48.816;9.154;2023-07-13T13:47:03;26.90;44.40
8459;DHT22;4266;48.816;9.154;2023-07-13T13:49:30;27.70;45.10
8459;DHT22;4266;48.816;9.154;2023-07-13T13:51:55;27.70;44.80
8459;DHT22;4266;48.816;9.154;2023-07-13T13:54:22;28.00;45.20
8459;DHT22;4266;48.816;9.154;2023-07-13T13:56:48;28.00;45.10
8459;DHT22;4266;48.816;9.154;2023-07-13T13:59:13;28.20;45.10
8459;DHT22;4266;48.816;9.154;2023-07-13T14:01:39;28.60;45.20
8459;DHT22;4266;48.816;9.154;2023-07-13T14:04:06;28.70;44.40
8459;DHT22;4266;48.816;9.154;2023-07-13T14:06:33;29.00;45.30
8459;DHT22;4266;48.816;9.154;2023-07-13T14:09:01;28.90;44.80
8459;DHT22;4266;48.816;9.154;2023-07-13T14:11:26;28.90;44.80
8459;DHT22;4266;48.816;9.154;2023-07-13T14:13:54;28.90;45.10
8459;DHT22;4266;48.816;9.154;2023-07-13T14:16:20;28.90;45.10
8459;DHT22;4266;48.816;9.154;2023-07-13T14:18:45;28.10;44.50
8459;DHT22;4266;48.816;9.154;2023-07-13T14:21:15;28.00;44.50
8459;DHT22;4266;48.816;9.154;2023-07-13T14:23:40;28.00;44.90
8459;DHT22;4266;48.816;9.154;2023-07-13T14:26:09;28.00;43.80
8459;DHT22;4266;48.816;9.154;2023-07-13T14:28:34;28.10;44.20
8459;DHT22;4266;48.816;9.154;2023-07-13T14:31:00;28.10;44.00
8459;DHT22;4266;48.816;9.154;2023-07-13T14:33:25;27.90;43.90
8459;DHT22;4266;48.816;9.154;2023-07-13T14:35:52;27.90;44.30
8459;DHT22;4266;48.816;9.154;2023-07-13T14:38:18;27.90;43.90
8459;DHT22;4266;48.816;9.154;2023-07-13T14:40:43;27.80;43.90
8459;DHT22;4266;48.816;9.154;2023-07-13T14:43:10;27.70;43.90
8459;DHT22;4266;48.816;9.154;2023-07-13T14:45:35;27.60;44.20
8459;DHT22;4266;48.816;9.154;2023-07-13T14:48:01;27.60;44.50
8459;DHT22;4266;48.816;9.154;2023-07-13T14:50:30;27.60;44.90
8459;DHT22;4266;48.816;9.154;2023-07-13T14:52:53;27.60;44.60
8459;DHT22;4266;48.816;9.154;2023-07-13T14:55:20;27.10;43.90
8459;DHT22;4266;48.816;9.154;2023-07-13T14:57:45;27.00;43.80
8459;DHT22;4266;48.816;9.154;2023-07-13T15:00:14;26.90;44.70
8459;DHT22;4266;48.816;9.154;2023-07-13T15:02:40;26.80;44.60
8459;DHT22;4266;48.816;9.154;2023-07-13T15:05:12;26.90;44.90
8459;DHT22;4266;48.816;9.154;2023-07-13T15:07:36;27.00;45.10
8459;DHT22;4266;48.816;9.154;2023-07-13T15:10:04;27.00;45.00
8459;DHT22;4266;48.816;9.154;2023-07-13T15:12:28;27.20;45.10
8459;DHT22;4266;48.816;9.154;2023-07-13T15:14:56;26.90;45.10
8459;DHT22;4266;48.816;9.154;2023-07-13T15:17:30;26.90;45.00
8459;DHT22;4266;48.816;9.154;2023-07-13T15:19:53;27.00;45.20
8459;DHT22;4266;48.816;9.154;2023-07-13T15:22:19;26.90;44.60
8459;DHT22;4266;48.816;9.154;2023-07-13T15:24:45;26.80;45.10
8459;DHT22;4266;48.816;9.154;2023-07-13T15:27:11;26.80;45.10
8459;DHT22;4266;48.816;9.154;2023-07-13T15:29:37;26.80;44.80
8459;DHT22;4266;48.816;9.154;2023-07-13T15:32:04;26.90;45.20
8459;DHT22;4266;48.816;9.154;2023-07-13T15:34:29;27.00;45.20
8459;DHT22;4266;48.816;9.154;2023-07-13T15:36:55;26.80;44.60
8459;DHT22;4266;48.816;9.154;2023-07-13T15:39:21;26.70;44.20
8459;DHT22;4266;48.816;9.154;2023-07-13T15:41:47;26.80;44.30
8459;DHT22;4266;48.816;9.154;2023-07-13T15:44:24;26.80;44.10
8459;DHT22;4266;48.816;9.154;2023-07-13T15:46:51;26.60;43.90
8459;DHT22;4266;48.816;9.154;2023-07-13T15:49:16;26.60;44.30
8459;DHT22;4266;48.816;9.154;2023-07-13T15:51:42;26.60;44.30
8459;DHT22;4266;48.816;9.154;2023-07-13T15:54:08;26.60;44.90
8459;DHT22;4266;48.816;9.154;2023-07-13T15:56:35;26.70;44.90
8459;DHT22;4266;48.816;9.154;2023-07-13T15:58:59;26.70;44.70
8459;DHT22;4266;48.816;9.154;2023-07-13T16:01:25;26.40;44.60
8459;DHT22;4266;48.816;9.154;2023-07-13T16:03:51;26.40;44.50
8459;DHT22;4266;48.816;9.154;2023-07-13T16:06:19;26.30;44.40
8459;DHT22;4266;48.816;9.154;2023-07-13T16:08:44;26.30;44.40
8459;DHT22;4266;48.816;9.154;2023-07-13T16:11:15;26.30;44.70
8459;DHT22;4266;48.816;9.154;2023-07-13T16:13:38;26.20;44.30
8459;DHT22;4266;48.816;9.154;2023-07-13T16:16:08;26.20;44.40
8459;DHT22;4266;48.816;9.154;2023-07-13T16:18:30;26.10;44.90
8459;DHT22;4266;48.816;9.154;2023-07-13T16:20:55;26.00;44.80